Sheerness, United Kingdom
Current Conditions -  °F | °C
As of 11:50 PM on Sunday 21 Dec 2014 (Local Time) from EGMC Reporting Station
Broken Clouds Broken Clouds  
Wind Chill: 52°   Ceiling: 1900
Heat Index: 52°   Visibility: 6mi
Dew Point: 46°   Wind: 18mph
Humidity: 82%   Direction: 230°SW
Pressure: 30.12"   Gusts: NA
Location:  51.44°N, 0.76°E
Report Text: EGMC 212350Z 23016KT 9999 BKN019 11/08 Q1020
Loading
Personal Weather Stations






























Interactive Weather Map New forecast layout! Learn more

10-Day Weather Forecast

Advertisements
Track Severe Weather on mobile